sensor_id;sensor_type;location;lat;lon;timestamp;pressure;altitude;pressure_sealevel;temperature;humidity
35553;BME280;21656;46.054;13.614;2023-02-19T08:35:00;101338.25;;;7.95;100.00
35553;BME280;21656;46.054;13.614;2023-02-19T08:37:26;101344.25;;;8.00;100.00
35553;BME280;21656;46.054;13.614;2023-02-19T08:39:51;101352.16;;;8.03;100.00
35553;BME280;21656;46.054;13.614;2023-02-19T08:42:17;101352.63;;;7.94;100.00
35553;BME280;21656;46.054;13.614;2023-02-19T08:44:42;101342.53;;;7.99;100.00
35553;BME280;21656;46.054;13.614;2023-02-19T08:47:07;101351.59;;;7.96;100.00
35553;BME280;21656;46.054;13.614;2023-02-19T08:49:33;101352.28;;;8.00;100.00
35553;BME280;21656;46.054;13.614;2023-02-19T08:51:58;101355.69;;;8.03;100.00
35553;BME280;21656;46.054;13.614;2023-02-19T08:54:24;101353.78;;;8.06;100.00
35553;BME280;21656;46.054;13.614;2023-02-19T08:56:49;101351.00;;;8.07;100.00
35553;BME280;21656;46.054;13.614;2023-02-19T08:59:15;101347.53;;;8.05;100.00
35553;BME280;21656;46.054;13.614;2023-02-19T09:01:41;101359.22;;;8.04;100.00
35553;BME280;21656;46.054;13.614;2023-02-19T09:04:10;101354.66;;;8.06;100.00
35553;BME280;21656;46.054;13.614;2023-02-19T09:06:36;101358.13;;;8.08;100.00
35553;BME280;21656;46.054;13.614;2023-02-19T09:09:01;101367.09;;;8.07;100.00
35553;BME280;21656;46.054;13.614;2023-02-19T09:11:27;101371.44;;;8.10;100.00
35553;BME280;21656;46.054;13.614;2023-02-19T09:13:54;101361.84;;;8.06;100.00
35553;BME280;21656;46.054;13.614;2023-02-19T09:16:20;101355.59;;;8.05;100.00
35553;BME280;21656;46.054;13.614;2023-02-19T09:18:46;101352.91;;;8.05;100.00
35553;BME280;21656;46.054;13.614;2023-02-19T09:21:11;101350.41;;;8.02;100.00
35553;BME280;21656;46.054;13.614;2023-02-19T09:23:37;101353.00;;;8.03;100.00
35553;BME280;21656;46.054;13.614;2023-02-19T09:26:04;101346.59;;;8.06;100.00
35553;BME280;21656;46.054;13.614;2023-02-19T09:28:32;101344.53;;;8.11;100.00
35553;BME280;21656;46.054;13.614;2023-02-19T09:31:05;101341.66;;;8.14;100.00
35553;BME280;21656;46.054;13.614;2023-02-19T09:33:31;101339.78;;;8.16;100.00
35553;BME280;21656;46.054;13.614;2023-02-19T09:36:00;101341.34;;;8.20;100.00
35553;BME280;21656;46.054;13.614;2023-02-19T09:38:26;101346.53;;;8.23;100.00
35553;BME280;21656;46.054;13.614;2023-02-19T09:40:53;101343.75;;;8.25;100.00
35553;BME280;21656;46.054;13.614;2023-02-19T09:43:23;101351.13;;;8.21;100.00
35553;BME280;21656;46.054;13.614;2023-02-19T09:46:01;101349.09;;;8.25;100.00
35553;BME280;21656;46.054;13.614;2023-02-19T09:48:28;101345.66;;;8.23;100.00
35553;BME280;21656;46.054;13.614;2023-02-19T09:50:56;101339.16;;;8.27;100.00
35553;BME280;21656;46.054;13.614;2023-02-19T09:53:26;101345.31;;;8.29;100.00
35553;BME280;21656;46.054;13.614;2023-02-19T09:55:54;101347.94;;;8.31;100.00
35553;BME280;21656;46.054;13.614;2023-02-19T10:00:50;101341.59;;;8.32;100.00
35553;BME280;21656;46.054;13.614;2023-02-19T10:06:01;101344.88;;;8.37;100.00
35553;BME280;21656;46.054;13.614;2023-02-19T10:08:32;101334.94;;;8.39;100.00
35553;BME280;21656;46.054;13.614;2023-02-19T10:11:00;101338.44;;;8.41;100.00
35553;BME280;21656;46.054;13.614;2023-02-19T10:13:32;101338.25;;;8.44;100.00
35553;BME280;21656;46.054;13.614;2023-02-19T10:16:01;101329.03;;;8.48;100.00
35553;BME280;21656;46.054;13.614;2023-02-19T10:18:36;101332.44;;;8.52;100.00
35553;BME280;21656;46.054;13.614;2023-02-19T10:21:04;101333.97;;;8.56;100.00
35553;BME280;21656;46.054;13.614;2023-02-19T10:23:30;101328.44;;;8.59;100.00
35553;BME280;21656;46.054;13.614;2023-02-19T10:25:57;101323.69;;;8.64;100.00
35553;BME280;21656;46.054;13.614;2023-02-19T10:28:27;101326.84;;;8.71;100.00
35553;BME280;21656;46.054;13.614;2023-02-19T10:30:55;101328.50;;;8.73;100.00
35553;BME280;21656;46.054;13.614;2023-02-19T10:33:22;101322.06;;;8.76;100.00
35553;BME280;21656;46.054;13.614;2023-02-19T10:38:19;101318.59;;;8.89;100.00
35553;BME280;21656;46.054;13.614;2023-02-19T10:40:48;101330.88;;;8.94;100.00
35553;BME280;21656;46.054;13.614;2023-02-19T10:43:24;101323.78;;;8.93;100.00
35553;BME280;21656;46.054;13.614;2023-02-19T10:45:56;101322.06;;;8.92;100.00
35553;BME280;21656;46.054;13.614;2023-02-19T10:48:29;101326.53;;;8.91;100.00
35553;BME280;21656;46.054;13.614;2023-02-19T10:50:59;101313.31;;;8.88;100.00
35553;BME280;21656;46.054;13.614;2023-02-19T10:53:43;101315.13;;;8.87;100.00
35553;BME280;21656;46.054;13.614;2023-02-19T10:58:35;101297.00;;;8.91;100.00
35553;BME280;21656;46.054;13.614;2023-02-19T11:01:14;101299.69;;;8.91;100.00
35553;BME280;21656;46.054;13.614;2023-02-19T11:03:41;101301.63;;;8.89;100.00
35553;BME280;21656;46.054;13.614;2023-02-19T11:06:09;101293.25;;;8.94;100.00
35553;BME280;21656;46.054;13.614;2023-02-19T11:08:52;101283.41;;;8.94;100.00
35553;BME280;21656;46.054;13.614;2023-02-19T11:11:29;101287.63;;;8.98;100.00
35553;BME280;21656;46.054;13.614;2023-02-19T11:13:56;101293.75;;;9.00;100.00
35553;BME280;21656;46.054;13.614;2023-02-19T11:16:23;101283.28;;;8.96;100.00
35553;BME280;21656;46.054;13.614;2023-02-19T11:19:00;101287.81;;;8.95;100.00
35553;BME280;21656;46.054;13.614;2023-02-19T11:21:28;101284.00;;;8.99;100.00
35553;BME280;21656;46.054;13.614;2023-02-19T11:23:58;101288.41;;;9.00;100.00
35553;BME280;21656;46.054;13.614;2023-02-19T11:26:26;101282.75;;;9.05;100.00
35553;BME280;21656;46.054;13.614;2023-02-19T11:28:56;101285.69;;;9.00;100.00
35553;BME280;21656;46.054;13.614;2023-02-19T11:31:32;101286.56;;;9.01;100.00
35553;BME280;21656;46.054;13.614;2023-02-19T11:34:21;101272.00;;;9.05;100.00
35553;BME280;21656;46.054;13.614;2023-02-19T11:37:12;101277.19;;;9.08;100.00
35553;BME280;21656;46.054;13.614;2023-02-19T11:39:39;101275.06;;;9.13;100.00
35553;BME280;21656;46.054;13.614;2023-02-19T11:58:50;101257.06;;;9.29;100.00
35553;BME280;21656;46.054;13.614;2023-02-19T12:22:29;101227.41;;;9.45;100.00
35553;BME280;21656;46.054;13.614;2023-02-19T12:35:59;101225.75;;;9.57;100.00
35553;BME280;21656;46.054;13.614;2023-02-19T12:38:31;101222.66;;;9.63;100.00
35553;BME280;21656;46.054;13.614;2023-02-19T12:43:26;101208.22;;;9.79;100.00
35553;BME280;21656;46.054;13.614;2023-02-19T12:48:25;101206.00;;;9.85;100.00
35553;BME280;21656;46.054;13.614;2023-02-19T12:51:10;101212.91;;;9.89;100.00
35553;BME280;21656;46.054;13.614;2023-02-19T12:53:53;101211.75;;;9.93;100.00
35553;BME280;21656;46.054;13.614;2023-02-19T12:56:24;101202.63;;;9.96;100.00
35553;BME280;21656;46.054;13.614;2023-02-19T12:58:59;101196.38;;;9.95;100.00
35553;BME280;21656;46.054;13.614;2023-02-19T13:01:32;101190.09;;;9.95;100.00
35553;BME280;21656;46.054;13.614;2023-02-19T13:07:04;101175.66;;;9.83;100.00
35553;BME280;21656;46.054;13.614;2023-02-19T13:10:05;101159.31;;;9.86;100.00
35553;BME280;21656;46.054;13.614;2023-02-19T13:12:36;101151.25;;;9.86;100.00
35553;BME280;21656;46.054;13.614;2023-02-19T13:15:13;101154.50;;;9.91;100.00
35553;BME280;21656;46.054;13.614;2023-02-19T13:17:46;101156.97;;;9.94;100.00
35553;BME280;21656;46.054;13.614;2023-02-19T13:36:53;101146.66;;;9.74;100.00
35553;BME280;21656;46.054;13.614;2023-02-19T13:39:20;101157.41;;;9.74;100.00
35553;BME280;21656;46.054;13.614;2023-02-19T13:41:51;101163.56;;;9.76;100.00
35553;BME280;21656;46.054;13.614;2023-02-19T13:44:19;101159.72;;;9.80;100.00
35553;BME280;21656;46.054;13.614;2023-02-19T13:46:48;101153.38;;;9.81;100.00
35553;BME280;21656;46.054;13.614;2023-02-19T14:14:44;101130.28;;;9.91;100.00
35553;BME280;21656;46.054;13.614;2023-02-19T14:17:26;101140.19;;;9.91;100.00
35553;BME280;21656;46.054;13.614;2023-02-19T14:28:16;101135.00;;;9.88;100.00
35553;BME280;21656;46.054;13.614;2023-02-19T14:33:26;101141.25;;;9.88;100.00
35553;BME280;21656;46.054;13.614;2023-02-19T14:35:57;101149.31;;;9.88;100.00
35553;BME280;21656;46.054;13.614;2023-02-19T14:38:28;101163.41;;;9.92;100.00
35553;BME280;21656;46.054;13.614;2023-02-19T14:40:55;101161.56;;;9.92;100.00
35553;BME280;21656;46.054;13.614;2023-02-19T14:43:23;101159.88;;;9.91;100.00
35553;BME280;21656;46.054;13.614;2023-02-19T14:45:55;101152.78;;;9.90;100.00
35553;BME280;21656;46.054;13.614;2023-02-19T14:48:28;101161.50;;;9.94;100.00
35553;BME280;21656;46.054;13.614;2023-02-19T14:51:03;101156.09;;;9.94;100.00
35553;BME280;21656;46.054;13.614;2023-02-19T14:53:36;101147.19;;;9.93;100.00
35553;BME280;21656;46.054;13.614;2023-02-19T14:56:04;101160.63;;;9.93;100.00
35553;BME280;21656;46.054;13.614;2023-02-19T14:58:31;101143.94;;;9.88;100.00
35553;BME280;21656;46.054;13.614;2023-02-19T15:00:58;101137.22;;;9.81;100.00
35553;BME280;21656;46.054;13.614;2023-02-19T15:03:27;101142.50;;;9.83;100.00
35553;BME280;21656;46.054;13.614;2023-02-19T15:06:05;101144.31;;;9.82;100.00
35553;BME280;21656;46.054;13.614;2023-02-19T15:08:37;101137.13;;;9.83;100.00
35553;BME280;21656;46.054;13.614;2023-02-19T15:11:09;101157.13;;;9.79;100.00
35553;BME280;21656;46.054;13.614;2023-02-19T15:13:36;101155.41;;;9.77;100.00
35553;BME280;21656;46.054;13.614;2023-02-19T15:16:03;101159.25;;;9.73;100.00
35553;BME280;21656;46.054;13.614;2023-02-19T15:18:28;101171.84;;;9.73;100.00
35553;BME280;21656;46.054;13.614;2023-02-19T15:21:00;101173.75;;;9.71;100.00
35553;BME280;21656;46.054;13.614;2023-02-19T15:23:28;101181.84;;;9.71;100.00
35553;BME280;21656;46.054;13.614;2023-02-19T15:25:55;101172.44;;;9.64;100.00
35553;BME280;21656;46.054;13.614;2023-02-19T15:28:28;101168.97;;;9.62;100.00
35553;BME280;21656;46.054;13.614;2023-02-19T15:33:22;101165.34;;;9.63;100.00
35553;BME280;21656;46.054;13.614;2023-02-19T15:35:55;101169.84;;;9.62;100.00
35553;BME280;21656;46.054;13.614;2023-02-19T15:38:22;101170.72;;;9.63;100.00
35553;BME280;21656;46.054;13.614;2023-02-19T15:40:48;101174.34;;;9.62;100.00
35553;BME280;21656;46.054;13.614;2023-02-19T15:46:21;101181.97;;;9.55;100.00
35553;BME280;21656;46.054;13.614;2023-02-19T15:48:57;101179.44;;;9.52;100.00
35553;BME280;21656;46.054;13.614;2023-02-19T15:51:30;101184.09;;;9.50;100.00
35553;BME280;21656;46.054;13.614;2023-02-19T15:54:04;101180.50;;;9.49;100.00
35553;BME280;21656;46.054;13.614;2023-02-19T15:56:35;101182.13;;;9.52;100.00
35553;BME280;21656;46.054;13.614;2023-02-19T15:59:15;101183.03;;;9.52;100.00
35553;BME280;21656;46.054;13.614;2023-02-19T16:01:43;101180.13;;;9.55;100.00
35553;BME280;21656;46.054;13.614;2023-02-19T16:04:14;101179.38;;;9.53;100.00
35553;BME280;21656;46.054;13.614;2023-02-19T16:06:54;101180.34;;;9.52;100.00
35553;BME280;21656;46.054;13.614;2023-02-19T16:09:26;101177.81;;;9.49;100.00
35553;BME280;21656;46.054;13.614;2023-02-19T16:11:53;101186.09;;;9.46;100.00
35553;BME280;21656;46.054;13.614;2023-02-19T16:16:51;101193.28;;;9.46;100.00
35553;BME280;21656;46.054;13.614;2023-02-19T16:19:23;101195.22;;;9.44;100.00
35553;BME280;21656;46.054;13.614;2023-02-19T16:21:50;101206.25;;;9.39;100.00
35553;BME280;21656;46.054;13.614;2023-02-19T16:26:53;101208.19;;;9.37;100.00
35553;BME280;21656;46.054;13.614;2023-02-19T16:29:28;101218.47;;;9.30;100.00
35553;BME280;21656;46.054;13.614;2023-02-19T16:31:58;101218.66;;;9.27;100.00
35553;BME280;21656;46.054;13.614;2023-02-19T16:34:41;101210.59;;;9.27;100.00
35553;BME280;21656;46.054;13.614;2023-02-19T16:37:37;101217.13;;;9.23;100.00
35553;BME280;21656;46.054;13.614;2023-02-19T16:42:31;101201.28;;;9.19;100.00
35553;BME280;21656;46.054;13.614;2023-02-19T16:44:57;101204.84;;;9.19;100.00
35553;BME280;21656;46.054;13.614;2023-02-19T16:47:33;101199.63;;;9.16;100.00
35553;BME280;21656;46.054;13.614;2023-02-19T16:50:05;101213.97;;;9.17;100.00
35553;BME280;21656;46.054;13.614;2023-02-19T16:52:32;101217.59;;;9.16;100.00
35553;BME280;21656;46.054;13.614;2023-02-19T16:54:57;101221.34;;;9.13;100.00
35553;BME280;21656;46.054;13.614;2023-02-19T16:57:23;101242.94;;;9.11;100.00
35553;BME280;21656;46.054;13.614;2023-02-19T16:59:48;101236.88;;;9.08;100.00
35553;BME280;21656;46.054;13.614;2023-02-19T17:02:18;101245.13;;;9.05;100.00
35553;BME280;21656;46.054;13.614;2023-02-19T17:04:45;101253.09;;;9.06;100.00
35553;BME280;21656;46.054;13.614;2023-02-19T17:07:13;101260.56;;;9.01;100.00
35553;BME280;21656;46.054;13.614;2023-02-19T17:09:39;101258.84;;;9.00;100.00
35553;BME280;21656;46.054;13.614;2023-02-19T17:12:13;101267.88;;;8.99;100.00
35553;BME280;21656;46.054;13.614;2023-02-19T17:14:39;101254.72;;;8.95;100.00
35553;BME280;21656;46.054;13.614;2023-02-19T17:17:05;101254.53;;;8.98;100.00
35553;BME280;21656;46.054;13.614;2023-02-19T17:19:31;101276.09;;;8.96;100.00
35553;BME280;21656;46.054;13.614;2023-02-19T17:21:57;101272.66;;;8.94;100.00
35553;BME280;21656;46.054;13.614;2023-02-19T17:24:24;101267.38;;;8.93;100.00
35553;BME280;21656;46.054;13.614;2023-02-19T17:26:50;101277.34;;;8.90;100.00
35553;BME280;21656;46.054;13.614;2023-02-19T17:29:15;101281.66;;;8.93;100.00
35553;BME280;21656;46.054;13.614;2023-02-19T17:31:43;101280.97;;;8.89;100.00
35553;BME280;21656;46.054;13.614;2023-02-19T17:34:08;101296.41;;;8.86;100.00
35553;BME280;21656;46.054;13.614;2023-02-19T17:36:34;101291.81;;;8.88;100.00
35553;BME280;21656;46.054;13.614;2023-02-19T17:39:03;101291.81;;;8.88;100.00
35553;BME280;21656;46.054;13.614;2023-02-19T17:41:28;101296.59;;;8.83;100.00
35553;BME280;21656;46.054;13.614;2023-02-19T17:43:54;101300.44;;;8.79;100.00
35553;BME280;21656;46.054;13.614;2023-02-19T17:46:22;101308.50;;;8.79;100.00
35553;BME280;21656;46.054;13.614;2023-02-19T17:48:49;101303.28;;;8.76;100.00
35553;BME280;21656;46.054;13.614;2023-02-19T17:51:14;101305.97;;;8.76;100.00
35553;BME280;21656;46.054;13.614;2023-02-19T17:53:40;101321.22;;;8.75;100.00
35553;BME280;21656;46.054;13.614;2023-02-19T17:56:06;101311.91;;;8.66;100.00
35553;BME280;21656;46.054;13.614;2023-02-19T17:58:31;101322.63;;;8.66;100.00
35553;BME280;21656;46.054;13.614;2023-02-19T18:00:57;101337.59;;;8.71;100.00
35553;BME280;21656;46.054;13.614;2023-02-19T18:03:22;101337.00;;;8.65;100.00
35553;BME280;21656;46.054;13.614;2023-02-19T18:05:48;101335.19;;;8.66;100.00
35553;BME280;21656;46.054;13.614;2023-02-19T18:08:13;101332.41;;;8.67;100.00
35553;BME280;21656;46.054;13.614;2023-02-19T18:10:39;101328.78;;;8.68;100.00
35553;BME280;21656;46.054;13.614;2023-02-19T18:13:04;101320.13;;;8.63;100.00
35553;BME280;21656;46.054;13.614;2023-02-19T18:15:30;101321.00;;;8.64;100.00
35553;BME280;21656;46.054;13.614;2023-02-19T18:17:56;101336.25;;;8.63;100.00
35553;BME280;21656;46.054;13.614;2023-02-19T18:20:24;101337.19;;;8.62;100.00
35553;BME280;21656;46.054;13.614;2023-02-19T18:22:50;101341.78;;;8.60;100.00
35553;BME280;21656;46.054;13.614;2023-02-19T18:25:17;101337.19;;;8.62;100.00
35553;BME280;21656;46.054;13.614;2023-02-19T18:27:42;101337.38;;;8.59;100.00
35553;BME280;21656;46.054;13.614;2023-02-19T18:30:09;101346.38;;;8.58;100.00
35553;BME280;21656;46.054;13.614;2023-02-19T18:32:35;101343.59;;;8.60;100.00
35553;BME280;21656;46.054;13.614;2023-02-19T18:35:00;101354.25;;;8.61;100.00
35553;BME280;21656;46.054;13.614;2023-02-19T18:37:27;101357.03;;;8.60;100.00
35553;BME280;21656;46.054;13.614;2023-02-19T18:39:56;101365.19;;;8.58;100.00
35553;BME280;21656;46.054;13.614;2023-02-19T18:42:22;101361.78;;;8.55;100.00
35553;BME280;21656;46.054;13.614;2023-02-19T18:44:48;101359.97;;;8.55;100.00
35553;BME280;21656;46.054;13.614;2023-02-19T18:47:15;101370.69;;;8.55;100.00
35553;BME280;21656;46.054;13.614;2023-02-19T18:49:45;101364.41;;;8.56;100.00
35553;BME280;21656;46.054;13.614;2023-02-19T18:52:11;101362.81;;;8.52;100.00
35553;BME280;21656;46.054;13.614;2023-02-19T18:54:36;101364.47;;;8.55;100.00
35553;BME280;21656;46.054;13.614;2023-02-19T18:57:02;101361.88;;;8.53;100.00
35553;BME280;21656;46.054;13.614;2023-02-19T18:59:30;101369.06;;;8.53;100.00
35553;BME280;21656;46.054;13.614;2023-02-19T19:01:55;101365.50;;;8.52;100.00
35553;BME280;21656;46.054;13.614;2023-02-19T19:04:21;101370.88;;;8.52;100.00
35553;BME280;21656;46.054;13.614;2023-02-19T19:06:46;101367.16;;;8.55;100.00
35553;BME280;21656;46.054;13.614;2023-02-19T19:09:13;101370.03;;;8.52;100.00
35553;BME280;21656;46.054;13.614;2023-02-19T19:11:38;101373.13;;;8.60;100.00
35553;BME280;21656;46.054;13.614;2023-02-19T19:14:06;101358.91;;;8.58;100.00
35553;BME280;21656;46.054;13.614;2023-02-19T19:16:31;101376.78;;;8.59;100.00
35553;BME280;21656;46.054;13.614;2023-02-19T19:18:57;101381.28;;;8.58;100.00
35553;BME280;21656;46.054;13.614;2023-02-19T19:21:22;101373.25;;;8.58;100.00
35553;BME280;21656;46.054;13.614;2023-02-19T19:23:48;101388.38;;;8.59;100.00
35553;BME280;21656;46.054;13.614;2023-02-19T19:26:14;101383.88;;;8.60;100.00
35553;BME280;21656;46.054;13.614;2023-02-19T19:28:40;101396.44;;;8.59;100.00
35553;BME280;21656;46.054;13.614;2023-02-19T19:31:16;101397.47;;;8.57;100.00
35553;BME280;21656;46.054;13.614;2023-02-19T19:33:42;101399.38;;;8.55;100.00
35553;BME280;21656;46.054;13.614;2023-02-19T19:36:09;101409.25;;;8.54;100.00
35553;BME280;21656;46.054;13.614;2023-02-19T19:38:34;101403.78;;;8.56;100.00
35553;BME280;21656;46.054;13.614;2023-02-19T19:41:00;101413.50;;;8.58;100.00
35553;BME280;21656;46.054;13.614;2023-02-19T19:43:27;101409.16;;;8.56;100.00
35553;BME280;21656;46.054;13.614;2023-02-19T19:45:53;101416.34;;;8.55;100.00
35553;BME280;21656;46.054;13.614;2023-02-19T19:48:19;101418.34;;;8.52;100.00
35553;BME280;21656;46.054;13.614;2023-02-19T19:50:44;101430.81;;;8.53;100.00
35553;BME280;21656;46.054;13.614;2023-02-19T19:53:10;101437.22;;;8.50;100.00
35553;BME280;21656;46.054;13.614;2023-02-19T19:55:35;101438.88;;;8.53;100.00
35553;BME280;21656;46.054;13.614;2023-02-19T19:58:01;101445.28;;;8.50;100.00
35553;BME280;21656;46.054;13.614;2023-02-19T20:00:26;101448.66;;;8.54;100.00
35553;BME280;21656;46.054;13.614;2023-02-19T20:02:51;101448.66;;;8.54;100.00
35553;BME280;21656;46.054;13.614;2023-02-19T20:05:17;101450.47;;;8.53;100.00
35553;BME280;21656;46.054;13.614;2023-02-19T20:07:43;101462.09;;;8.54;100.00
35553;BME280;21656;46.054;13.614;2023-02-19T20:10:09;101458.88;;;8.47;100.00
35553;BME280;21656;46.054;13.614;2023-02-19T20:12:40;101460.59;;;8.48;100.00
35553;BME280;21656;46.054;13.614;2023-02-19T20:15:07;101465.09;;;8.48;100.00
35553;BME280;21656;46.054;13.614;2023-02-19T20:17:33;101462.09;;;8.54;100.00
35553;BME280;21656;46.054;13.614;2023-02-19T20:19:58;101472.22;;;8.49;100.00
35553;BME280;21656;46.054;13.614;2023-02-19T20:22:24;101473.88;;;8.51;100.00
35553;BME280;21656;46.054;13.614;2023-02-19T20:24:50;101464.84;;;8.52;100.00
35553;BME280;21656;46.054;13.614;2023-02-19T20:27:17;101478.28;;;8.52;100.00
35553;BME280;21656;46.054;13.614;2023-02-19T20:29:43;101465.88;;;8.50;100.00
35553;BME280;21656;46.054;13.614;2023-02-19T20:32:09;101466.84;;;8.49;100.00
35553;BME280;21656;46.054;13.614;2023-02-19T20:34:35;101475.66;;;8.51;100.00
35553;BME280;21656;46.054;13.614;2023-02-19T20:37:03;101485.88;;;8.44;100.00
35553;BME280;21656;46.054;13.614;2023-02-19T20:39:29;101486.56;;;8.48;100.00
35553;BME280;21656;46.054;13.614;2023-02-19T20:41:57;101480.41;;;8.45;100.00
35553;BME280;21656;46.054;13.614;2023-02-19T20:44:24;101484.38;;;8.38;100.00
35553;BME280;21656;46.054;13.614;2023-02-19T20:46:57;101479.00;;;8.38;100.00
35553;BME280;21656;46.054;13.614;2023-02-19T20:49:28;101487.22;;;8.35;100.00
35553;BME280;21656;46.054;13.614;2023-02-19T20:52:00;101485.31;;;8.37;100.00
35553;BME280;21656;46.054;13.614;2023-02-19T20:54:28;101489.59;;;8.41;100.00
35553;BME280;21656;46.054;13.614;2023-02-19T20:56:55;101491.44;;;8.41;100.00
35553;BME280;21656;46.054;13.614;2023-02-19T20:59:24;101492.38;;;8.40;100.00
35553;BME280;21656;46.054;13.614;2023-02-19T21:01:54;101498.53;;;8.42;100.00
35553;BME280;21656;46.054;13.614;2023-02-19T21:04:19;101501.28;;;8.40;100.00
35553;BME280;21656;46.054;13.614;2023-02-19T21:06:44;101503.31;;;8.35;100.00
35553;BME280;21656;46.054;13.614;2023-02-19T21:09:10;101506.72;;;8.39;100.00
35553;BME280;21656;46.054;13.614;2023-02-19T21:11:36;101511.16;;;8.40;100.00
35553;BME280;21656;46.054;13.614;2023-02-19T21:14:01;101520.06;;;8.40;100.00
35553;BME280;21656;46.054;13.614;2023-02-19T21:16:31;101511.22;;;8.38;100.00
35553;BME280;21656;46.054;13.614;2023-02-19T21:18:57;101504.03;;;8.39;100.00
35553;BME280;21656;46.054;13.614;2023-02-19T21:21:24;101512.00;;;8.40;100.00
35553;BME280;21656;46.054;13.614;2023-02-19T21:23:54;101505.78;;;8.40;100.00
35553;BME280;21656;46.054;13.614;2023-02-19T21:26:21;101504.19;;;8.36;100.00
35553;BME280;21656;46.054;13.614;2023-02-19T21:28:52;101497.09;;;8.35;100.00
35553;BME280;21656;46.054;13.614;2023-02-19T21:31:19;101491.88;;;8.32;100.00
35553;BME280;21656;46.054;13.614;2023-02-19T21:33:45;101498.91;;;8.34;100.00
35553;BME280;21656;46.054;13.614;2023-02-19T21:36:11;101495.91;;;8.40;100.00
35553;BME280;21656;46.054;13.614;2023-02-19T21:38:36;101491.53;;;8.38;100.00
35553;BME280;21656;46.054;13.614;2023-02-19T21:41:02;101495.97;;;8.39;100.00
35553;BME280;21656;46.054;13.614;2023-02-19T21:43:28;101493.72;;;8.31;100.00
35553;BME280;21656;46.054;13.614;2023-02-19T21:45:53;101493.72;;;8.31;100.00
35553;BME280;21656;46.054;13.614;2023-02-19T21:48:19;101499.94;;;8.32;100.00
35553;BME280;21656;46.054;13.614;2023-02-19T21:50:44;101498.13;;;8.32;100.00
35553;BME280;21656;46.054;13.614;2023-02-19T21:53:11;101502.44;;;8.35;100.00
35553;BME280;21656;46.054;13.614;2023-02-19T21:55:36;101510.00;;;8.28;100.00
